Hlavní strana
METAR-TAF:

METAR-TAF

Letiště :

Benguela, Angola

zeměpisná šířka: 12-36-30S, zeměpisná délka: 13-24-10E, výška: 36 m

Aktuální stav počasí

Zpráva byla vytvořena před 9 minutami, v 14:00 UTC
Západoseverozápadní vítr 6 kt
Teplota 31°C
Vlhkost vzduchu 66%
Tlak 1010 hPa
Viditelnost 10 km a více
Polojasno ve výšce 1500 ft

METAR: FNBG 271400Z 30006KT 9999 SCT015 31/24 Q1010

Čas: 15:09 (14:09 UTC)

Předpověď počasí

Zpráva byla vytvořena před 3 hodinami a 9 minutami, v 11:00 UTC
Předpověď platná od 28 v 12 UTC do 28 v 24 UTC
Západoseverozápadní vítr 6 kt
Viditelnost: 7000 m
Polojasno ve výšce 2000 ft
Skoro jasno ve výšce 2000 ft, Cumulonimbus.
slabé mrholení
Změna
od 28 v 22 UTC do 28 v 24 UTC
vítr z různých směrů 2 kt
Viditelnost: 8000 m

TAF: FNBG 281100Z 2812/2824 30006KT 7000 -DZ SCT020 FEW020CB BECMG 2822/2824 VRB02KT 8000

Stav a předpovědi počasí z více než 4 000 letišť (zprávy METAR a TAF).

Červené a žluté tečky na mapě představují dostupné meteorologické stanice.

Když kurzor umístíte na tečku, zobrazí se název stanice.

Pak kliknutím zobrazíte stav a předpověď počasí.

Chcete-li změnit mapu, kliknutím na zelené tlačítko se znaménkem +mapu přiblížíte, kliknutím na zelené tlačítko se znaménkem – mapu oddálíte a kliknutím na zelené šipky přejdete na sousední mapy.


METAR-TAF: